createdAt,value
2022-11-05T00:02:51.750Z,21.23
2022-11-05T00:08:24.900Z,27.40
2022-11-05T00:13:45.429Z,28.70
2022-11-05T00:19:06.402Z,36.63
2022-11-05T00:24:28.349Z,27.33
2022-11-05T00:29:31.357Z,24.77
2022-11-05T00:34:34.271Z,21.60
2022-11-05T00:39:38.755Z,23.13
2022-11-05T00:44:59.014Z,24.70
2022-11-05T00:50:01.902Z,19.03
2022-11-05T00:55:06.438Z,22.27
2022-11-05T01:00:11.326Z,22.53
2022-11-05T01:05:15.113Z,21.10
2022-11-05T01:10:19.385Z,22.43
2022-11-05T01:15:22.722Z,21.43
2022-11-05T01:20:25.711Z,18.17
2022-11-05T01:25:30.061Z,19.73
2022-11-05T01:30:33.166Z,22.70
2022-11-05T01:35:36.117Z,19.73
2022-11-05T01:40:43.937Z,18.87
2022-11-05T01:45:50.197Z,25.40
2022-11-05T01:50:57.914Z,19.10
2022-11-05T01:56:06.703Z,20.97
2022-11-05T02:01:09.830Z,20.53
2022-11-05T02:06:14.736Z,15.70
2022-11-05T02:11:20.828Z,20.77
2022-11-05T02:16:36.709Z,17.50
2022-11-05T02:21:59.131Z,18.23
2022-11-05T02:27:15.909Z,18.17
2022-11-05T02:32:29.339Z,22.90
2022-11-05T02:37:41.044Z,17.80
2022-11-05T02:42:49.929Z,16.20
2022-11-05T02:48:00.161Z,15.30
2022-11-05T02:53:07.856Z,13.17
2022-11-05T02:58:11.187Z,13.00
2022-11-05T03:03:23.830Z,13.90
2022-11-05T03:08:40.325Z,14.07
2022-11-05T03:13:53.220Z,14.43
2022-11-05T03:19:07.834Z,14.20
2022-11-05T03:24:16.682Z,18.47
2022-11-05T03:29:24.096Z,18.00
2022-11-05T03:34:33.184Z,15.97
2022-11-05T03:39:40.387Z,22.17
2022-11-05T03:44:47.505Z,21.90
2022-11-05T03:49:59.334Z,24.50
2022-11-05T03:55:02.305Z,27.13
2022-11-05T04:00:08.959Z,27.27
2022-11-05T04:05:33.277Z,32.03
2022-11-05T04:11:02.371Z,34.57
2022-11-05T04:16:23.249Z,32.50
2022-11-05T04:21:45.092Z,34.10
2022-11-05T04:26:48.238Z,32.17
2022-11-05T04:31:51.197Z,35.47
2022-11-05T04:36:55.446Z,35.07
2022-11-05T04:41:58.325Z,30.53
2022-11-05T04:47:01.275Z,33.97
2022-11-05T04:52:05.705Z,28.60
2022-11-05T04:57:09.392Z,33.13
2022-11-05T05:02:12.298Z,35.27
2022-11-05T05:07:16.669Z,33.17
2022-11-05T05:12:19.657Z,35.13
2022-11-05T05:17:23.138Z,28.50
2022-11-05T05:22:27.424Z,32.63
2022-11-05T05:27:31.178Z,29.83
2022-11-05T05:32:34.388Z,24.40
2022-11-05T05:37:38.691Z,30.83
2022-11-05T05:42:43.361Z,23.33
2022-11-05T05:47:46.644Z,26.33
2022-11-05T05:52:50.901Z,28.47
2022-11-05T05:57:54.793Z,35.00
2022-11-05T06:02:58.012Z,29.57
2022-11-05T06:08:02.350Z,27.97
2022-11-05T06:13:05.412Z,30.50
2022-11-05T06:18:09.488Z,32.27
2022-11-05T06:23:13.868Z,31.43
2022-11-05T06:28:16.997Z,26.70
2022-11-05T06:33:19.941Z,28.27
2022-11-05T06:38:24.288Z,28.83
2022-11-05T06:43:27.248Z,28.00
2022-11-05T06:48:30.608Z,33.40
2022-11-05T06:53:35.746Z,28.40
2022-11-05T06:58:38.669Z,31.87
2022-11-05T07:03:41.664Z,27.97
2022-11-05T07:08:46.089Z,29.63
2022-11-05T07:13:49.010Z,24.37
2022-11-05T07:18:53.126Z,23.97
2022-11-05T07:23:58.170Z,23.97
2022-11-05T07:29:01.070Z,30.40
2022-11-05T07:34:04.746Z,23.27
2022-11-05T07:39:10.216Z,23.37
2022-11-05T07:44:14.456Z,30.47
2022-11-05T07:49:17.718Z,25.93
2022-11-05T07:54:26.391Z,31.20
2022-11-05T07:59:29.546Z,36.17
2022-11-05T08:04:32.534Z,33.73
2022-11-05T08:09:36.846Z,41.13
2022-11-05T08:14:39.757Z,26.33
2022-11-05T08:19:42.651Z,25.37
2022-11-05T08:24:46.933Z,22.93
2022-11-05T08:29:49.845Z,28.40
2022-11-05T08:34:52.803Z,19.80
2022-11-05T08:39:57.171Z,24.40
2022-11-05T08:45:00.104Z,24.40
2022-11-05T08:50:03.123Z,30.70
2022-11-05T08:55:08.306Z,21.90
2022-11-05T09:00:12.387Z,21.73
2022-11-05T09:05:15.315Z,24.80
2022-11-05T09:10:19.678Z,21.43
2022-11-05T09:15:23.315Z,15.53
2022-11-05T09:20:26.493Z,24.23
2022-11-05T09:25:30.803Z,18.80
2022-11-05T09:30:33.742Z,17.17
2022-11-05T09:35:39.547Z,15.67
2022-11-05T09:40:53.207Z,19.10
2022-11-05T09:45:59.249Z,14.70
2022-11-05T09:51:02.254Z,21.87
2022-11-05T09:56:16.490Z,20.13
2022-11-05T10:01:24.375Z,17.03
2022-11-05T10:06:28.894Z,12.87
2022-11-05T10:11:38.897Z,15.97
2022-11-05T10:16:44.717Z,14.40
2022-11-05T10:27:17.581Z,18.53
2022-11-05T10:32:28.963Z,18.03
2022-11-05T10:37:37.002Z,15.20
2022-11-05T10:42:53.371Z,14.30
2022-11-05T10:48:21.290Z,9.27
2022-11-05T10:53:28.650Z,22.27
2022-11-05T10:58:35.443Z,15.73
2022-11-05T11:03:45.566Z,16.20
2022-11-05T11:08:49.803Z,11.90
2022-11-05T11:14:02.548Z,10.63
2022-11-05T11:19:21.981Z,20.83
2022-11-05T11:24:27.564Z,12.03
2022-11-05T11:29:41.134Z,15.97
2022-11-05T11:34:47.715Z,12.97
2022-11-05T11:39:55.537Z,11.40
2022-11-05T11:45:02.963Z,13.47
2022-11-05T11:50:06.213Z,13.70
2022-11-05T11:55:21.303Z,10.07
2022-11-05T12:00:26.935Z,20.07
2022-11-05T12:05:37.317Z,12.87
2022-11-05T12:10:52.526Z,13.40
2022-11-05T12:15:59.077Z,8.60
2022-11-05T12:21:14.584Z,12.97
2022-11-05T12:26:27.804Z,14.83
2022-11-05T12:31:40.154Z,11.83
2022-11-05T12:36:59.066Z,7.90
2022-11-05T12:42:03.838Z,6.63
2022-11-05T12:47:22.349Z,6.83
2022-11-05T12:53:06.567Z,10.40
2022-11-05T12:58:13.607Z,7.53
2022-11-05T13:03:27.361Z,11.70
2022-11-05T13:08:38.999Z,7.57
2022-11-05T13:13:47.854Z,10.03
2022-11-05T13:18:55.921Z,11.23
2022-11-05T13:24:06.942Z,6.53
2022-11-05T13:29:15.130Z,8.33
2022-11-05T13:34:19.509Z,8.40
2022-11-05T13:39:26.800Z,10.63
2022-11-05T13:45:04.449Z,5.90
2022-11-05T13:50:29.240Z,10.70
2022-11-05T13:55:49.779Z,10.30
2022-11-05T14:01:07.068Z,7.93
2022-11-05T14:06:12.157Z,6.80
2022-11-05T14:11:22.969Z,8.70
2022-11-05T14:16:29.545Z,9.00
2022-11-05T14:21:48.393Z,5.60
2022-11-05T14:27:24.698Z,7.57
2022-11-05T14:32:43.418Z,4.77
2022-11-05T14:37:55.095Z,5.10
2022-11-05T14:43:02.319Z,5.77
2022-11-05T14:48:08.128Z,7.83
2022-11-05T14:53:27.779Z,7.80
2022-11-05T14:58:36.524Z,7.73
2022-11-05T15:04:19.380Z,5.93
2022-11-05T15:09:34.427Z,4.87
2022-11-05T15:14:42.388Z,2.70
2022-11-05T15:19:46.856Z,6.97
2022-11-05T15:24:51.365Z,10.17
2022-11-05T15:29:54.775Z,14.77
2022-11-05T15:34:57.835Z,11.77
2022-11-05T15:40:02.246Z,14.00
2022-11-05T15:45:05.955Z,8.87
2022-11-05T15:50:15.465Z,11.67
2022-11-05T15:55:23.734Z,14.33
2022-11-05T16:00:28.288Z,10.97
2022-11-05T16:05:34.794Z,9.23
2022-11-05T16:10:40.270Z,10.00
2022-11-05T16:15:54.554Z,10.00
2022-11-05T16:21:02.422Z,17.17
2022-11-05T16:26:07.078Z,11.57
2022-11-05T16:31:10.010Z,14.33
2022-11-05T16:36:13.854Z,14.03
2022-11-05T16:41:20.439Z,14.60
2022-11-05T16:46:25.229Z,13.87
2022-11-05T16:51:29.147Z,16.83
2022-11-05T16:56:34.471Z,17.47
2022-11-05T17:01:40.478Z,20.00
2022-11-05T17:06:46.619Z,13.67
2022-11-05T17:11:50.868Z,11.53
2022-11-05T17:16:53.926Z,10.40
2022-11-05T17:21:57.038Z,22.93
2022-11-05T17:27:01.297Z,30.30
2022-11-05T17:32:06.394Z,32.33
2022-11-05T17:37:09.295Z,28.20
2022-11-05T17:42:13.618Z,21.67
2022-11-05T17:47:16.515Z,28.40
2022-11-05T17:52:19.469Z,26.23
2022-11-05T17:57:23.848Z,26.13
2022-11-05T18:02:29.461Z,27.07
2022-11-05T18:07:32.598Z,30.57
2022-11-05T18:12:37.323Z,131.53
2022-11-05T18:17:40.272Z,38.83
2022-11-05T18:22:43.927Z,29.23
2022-11-05T18:27:48.288Z,43.60
2022-11-05T18:32:51.286Z,39.37
2022-11-05T18:37:54.174Z,39.10
2022-11-05T18:42:58.437Z,33.80
2022-11-05T18:48:01.894Z,31.73
2022-11-05T18:53:04.800Z,31.57
2022-11-05T18:58:09.788Z,30.47
2022-11-05T19:03:12.753Z,30.03
2022-11-05T19:08:15.688Z,41.63
2022-11-05T19:13:20.333Z,36.60
2022-11-05T19:18:23.244Z,35.67
2022-11-05T19:23:26.160Z,33.80
2022-11-05T19:28:30.458Z,28.63
2022-11-05T19:33:33.822Z,29.70
2022-11-05T19:38:36.876Z,27.50
2022-11-05T19:43:42.689Z,35.03
2022-11-05T19:48:46.891Z,37.63
2022-11-05T19:53:51.458Z,35.63
2022-11-05T19:58:55.852Z,28.70
2022-11-05T20:04:00.238Z,37.87
2022-11-05T20:09:22.882Z,36.63
2022-11-05T20:14:27.851Z,46.57
2022-11-05T20:19:30.832Z,36.40
2022-11-05T20:24:33.799Z,30.70
2022-11-05T20:29:38.239Z,42.57
2022-11-05T20:34:41.598Z,35.50
2022-11-05T20:39:44.506Z,43.87
2022-11-05T20:44:48.821Z,42.60
2022-11-05T20:49:51.780Z,36.00
2022-11-05T20:54:54.923Z,35.00
2022-11-05T20:59:59.229Z,29.23
2022-11-05T21:05:02.299Z,28.13
2022-11-05T21:10:05.973Z,22.03
2022-11-05T21:15:11.735Z,23.60
2022-11-05T21:20:14.655Z,26.63
2022-11-05T21:25:17.562Z,33.10
2022-11-05T21:30:21.909Z,28.73
2022-11-05T21:35:24.864Z,21.50
2022-11-05T21:40:27.907Z,23.30
2022-11-05T21:45:32.515Z,20.90
2022-11-05T21:50:53.389Z,23.00
2022-11-05T21:56:14.105Z,25.63
2022-11-05T22:01:18.583Z,26.07
2022-11-05T22:06:21.651Z,20.93
2022-11-05T22:11:24.547Z,23.60
2022-11-05T22:16:28.864Z,13.73
2022-11-05T22:21:31.770Z,10.03
2022-11-05T22:26:35.344Z,9.30
2022-11-05T22:31:39.880Z,5.37
2022-11-05T22:36:42.815Z,9.27
2022-11-05T22:41:46.130Z,15.53
2022-11-05T22:46:50.513Z,11.43
2022-11-05T22:51:53.420Z,16.40
2022-11-05T22:56:56.363Z,10.40
2022-11-05T23:02:04.034Z,8.63
2022-11-05T23:07:31.275Z,12.50
2022-11-05T23:12:37.786Z,11.70
2022-11-05T23:17:59.438Z,7.37
2022-11-05T23:23:34.462Z,15.37
2022-11-05T23:28:37.400Z,15.47
2022-11-05T23:33:41.678Z,17.60
2022-11-05T23:38:44.608Z,10.83
2022-11-05T23:44:19.648Z,15.10
2022-11-05T23:49:24.427Z,45.43
2022-11-05T23:54:27.344Z,17.60
2022-11-05T23:59:30.259Z,7.37
